createdAt,value
2019-04-22T00:02:22.565Z,47.25
2019-04-22T00:05:04.698Z,47.25
2019-04-22T00:07:56.351Z,47.35
2019-04-22T00:10:32.354Z,47.13
2019-04-22T00:13:14.970Z,46.03
2019-04-22T00:15:33.967Z,45.44
2019-04-22T00:18:13.323Z,46.30
2019-04-22T00:20:54.253Z,46.30
2019-04-22T00:23:24.687Z,45.79
2019-04-22T00:28:34.998Z,46.63
2019-04-22T00:31:20.987Z,46.97
2019-04-22T00:33:54.694Z,46.35
2019-04-22T00:36:27.528Z,46.00
2019-04-22T00:39:07.147Z,46.00
2019-04-22T00:41:36.531Z,46.44
2019-04-22T00:44:13.798Z,46.76
2019-04-22T00:46:46.198Z,46.76
2019-04-22T00:51:52.882Z,46.98
2019-04-22T00:54:26.070Z,46.45
2019-04-22T00:56:53.995Z,46.03
2019-04-22T00:59:35.114Z,44.69
2019-04-22T01:02:10.161Z,44.69
2019-04-22T01:04:40.927Z,44.58
2019-04-22T01:07:11.482Z,44.06
2019-04-22T01:09:49.770Z,44.25
2019-04-22T01:12:20.713Z,44.91
2019-04-22T01:14:57.362Z,43.46
2019-04-22T01:17:29.211Z,43.47
2019-04-22T01:22:27.104Z,43.02
2019-04-22T01:25:02.539Z,42.85
2019-04-22T01:27:36.378Z,42.85
2019-04-22T01:30:07.176Z,41.95
2019-04-22T01:32:36.121Z,41.95
2019-04-22T01:35:12.976Z,41.33
2019-04-22T01:37:58.613Z,40.89
2019-04-22T01:40:40.545Z,40.00
2019-04-22T01:43:06.991Z,40.00
2019-04-22T01:45:47.685Z,39.96
2019-04-22T01:48:17.729Z,39.46
2019-04-22T01:50:52.781Z,40.25
2019-04-22T01:53:29.764Z,39.21
2019-04-22T01:55:58.998Z,38.76
2019-04-22T01:58:30.760Z,38.36
2019-04-22T02:01:04.646Z,38.36
2019-04-22T02:03:42.898Z,37.95
2019-04-22T02:06:17.129Z,37.93
2019-04-22T02:08:53.224Z,37.51
2019-04-22T02:11:26.537Z,37.48
2019-04-22T02:13:56.341Z,36.50
2019-04-22T02:16:34.285Z,36.96
2019-04-22T02:19:11.726Z,36.96
2019-04-22T02:21:38.198Z,37.00
2019-04-22T02:24:12.185Z,35.46
2019-04-22T02:26:48.328Z,35.46
2019-04-22T02:29:27.188Z,35.64
2019-04-22T02:31:58.963Z,35.81
2019-04-22T02:34:32.912Z,36.86
2019-04-22T02:37:04.998Z,36.86
2019-04-22T02:39:55.047Z,36.49
2019-04-22T02:42:13.189Z,36.17
2019-04-22T02:44:46.663Z,36.17
2019-04-22T02:47:20.913Z,36.23
2019-04-22T02:50:00.829Z,39.15
2019-04-22T02:52:34.802Z,39.51
2019-04-22T02:55:04.902Z,39.91
2019-04-22T03:00:18.139Z,40.67
2019-04-22T03:02:54.550Z,38.80
2019-04-22T03:05:19.490Z,40.22
2019-04-22T03:07:58.299Z,40.22
2019-04-22T03:10:35.480Z,40.18
2019-04-22T03:13:00.162Z,37.17
2019-04-22T03:15:38.140Z,37.79
2019-04-22T03:20:41.990Z,35.74
2019-04-22T03:28:29.198Z,35.34
2019-04-22T03:34:55.384Z,33.59
2019-04-22T03:39:45.368Z,34.86
2019-04-22T03:43:08.546Z,34.86
2019-04-22T03:47:11.324Z,32.48
2019-04-22T03:49:50.014Z,33.59
2019-04-22T03:52:11.592Z,34.66
2019-04-22T03:54:46.382Z,34.20
2019-04-22T03:59:48.052Z,33.14
2019-04-22T04:02:28.958Z,33.34
2019-04-22T04:04:49.981Z,33.34
2019-04-22T04:07:45.697Z,32.55
2019-04-22T04:10:10.456Z,30.29
2019-04-22T04:12:53.370Z,30.29
2019-04-22T04:15:28.930Z,30.67
2019-04-22T04:23:05.479Z,30.46
2019-04-22T04:28:26.890Z,30.16
2019-04-22T04:33:18.493Z,29.98
2019-04-22T04:35:48.141Z,30.57
2019-04-22T04:38:13.126Z,30.06
2019-04-22T04:41:06.858Z,29.88
2019-04-22T04:43:27.869Z,30.72
2019-04-22T04:46:00.969Z,30.65
2019-04-22T04:48:44.680Z,29.80
2019-04-22T04:51:16.077Z,29.93
2019-04-22T04:53:31.780Z,31.92
2019-04-22T04:56:23.257Z,30.22
2019-04-22T04:58:55.870Z,32.95
2019-04-22T05:03:56.860Z,32.50
2019-04-22T05:11:54.418Z,32.78
2019-04-22T05:14:09.331Z,29.57
2019-04-22T05:21:40.537Z,29.56
2019-04-22T05:24:29.840Z,29.56
2019-04-22T05:26:57.494Z,29.30
2019-04-22T05:29:32.697Z,29.98
2019-04-22T05:32:13.735Z,29.16
2019-04-22T05:34:28.041Z,29.16
2019-04-22T05:37:03.968Z,28.31
2019-04-22T05:39:38.059Z,28.31
2019-04-22T05:42:08.540Z,28.32
2019-04-22T05:44:44.094Z,28.29
2019-04-22T05:47:14.725Z,28.29
2019-04-22T05:49:47.784Z,28.37
2019-04-22T05:52:20.367Z,28.11
2019-04-22T05:54:59.509Z,28.11
2019-04-22T05:57:35.684Z,26.35
2019-04-22T06:00:06.391Z,26.80
2019-04-22T06:02:47.581Z,26.80
2019-04-22T06:05:14.897Z,27.40
2019-04-22T06:07:41.517Z,27.40
2019-04-22T06:12:52.416Z,27.50
2019-04-22T06:15:27.158Z,30.44
2019-04-22T06:20:37.295Z,26.77
2019-04-22T06:23:12.659Z,33.02
2019-04-22T06:25:57.837Z,27.66
2019-04-22T06:28:28.612Z,27.39
2019-04-22T06:33:30.217Z,26.58
2019-04-22T06:41:09.227Z,25.16
2019-04-22T06:43:44.608Z,27.27
2019-04-22T06:46:15.312Z,25.24
2019-04-22T06:48:45.757Z,27.03
2019-04-22T06:51:20.198Z,25.87
2019-04-22T06:53:54.059Z,24.24
2019-04-22T06:56:22.028Z,24.10
2019-04-22T06:58:59.044Z,24.23
2019-04-22T07:01:39.072Z,25.80
2019-04-22T07:04:03.352Z,26.54
2019-04-22T07:11:53.121Z,25.43
2019-04-22T07:14:18.644Z,27.57
2019-04-22T07:17:00.859Z,25.97
2019-04-22T07:19:33.635Z,26.67
2019-04-22T07:24:46.139Z,27.84
2019-04-22T07:29:46.671Z,24.77
2019-04-22T07:32:29.781Z,24.41
2019-04-22T07:34:52.850Z,23.02
2019-04-22T07:37:31.364Z,24.37
2019-04-22T07:39:56.559Z,23.54
2019-04-22T07:42:32.847Z,23.17
2019-04-22T07:45:08.634Z,21.64
2019-04-22T07:50:34.198Z,23.53
2019-04-22T07:52:44.950Z,23.24
2019-04-22T07:55:11.699Z,24.94
2019-04-22T07:57:52.321Z,24.94
2019-04-22T08:00:29.465Z,23.50
2019-04-22T08:03:06.693Z,23.64
2019-04-22T08:05:44.357Z,22.14
2019-04-22T08:08:15.606Z,21.23
2019-04-22T08:10:43.190Z,21.71
2019-04-22T08:13:17.247Z,22.00
2019-04-22T08:18:21.910Z,22.50
2019-04-22T08:20:56.700Z,24.40
2019-04-22T08:23:31.607Z,23.11
2019-04-22T08:26:00.845Z,23.88
2019-04-22T08:28:40.746Z,21.85
2019-04-22T08:31:14.879Z,24.30
2019-04-22T08:33:49.623Z,22.44
2019-04-22T08:36:17.941Z,22.37
2019-04-22T08:39:00.866Z,23.62
2019-04-22T08:44:02.521Z,22.69
2019-04-22T08:46:40.407Z,23.39
2019-04-22T08:49:05.721Z,23.56
2019-04-22T08:51:44.280Z,23.39
2019-04-22T08:56:56.853Z,22.79
2019-04-22T08:59:24.782Z,23.01
2019-04-22T09:01:59.353Z,22.89
2019-04-22T09:04:32.275Z,22.80
2019-04-22T09:12:15.955Z,21.96
2019-04-22T09:14:45.803Z,22.10
2019-04-22T09:17:22.799Z,22.61
2019-04-22T09:19:58.734Z,22.11
2019-04-22T09:22:26.221Z,22.08
2019-04-22T09:24:58.596Z,22.49
2019-04-22T09:27:39.918Z,21.66
2019-04-22T09:30:15.765Z,21.99
2019-04-22T09:32:52.346Z,22.60
2019-04-22T09:35:17.354Z,22.46
2019-04-22T09:38:08.890Z,22.46
2019-04-22T09:40:28.606Z,22.08
2019-04-22T09:43:01.155Z,22.04
2019-04-22T09:45:27.601Z,22.15
2019-04-22T09:48:09.043Z,22.28
2019-04-22T09:50:44.560Z,22.77
2019-04-22T09:53:15.056Z,22.77
2019-04-22T09:55:41.672Z,22.47
2019-04-22T09:58:16.183Z,22.21
2019-04-22T10:01:22.741Z,21.90
2019-04-22T10:03:56.231Z,21.75
2019-04-22T10:09:25.959Z,22.46
2019-04-22T10:14:05.548Z,22.58
2019-04-22T10:16:43.763Z,22.33
2019-04-22T10:19:16.702Z,21.81
2019-04-22T10:24:19.049Z,22.11
2019-04-22T10:27:05.997Z,21.97
2019-04-22T10:29:38.237Z,21.58
2019-04-22T10:32:00.838Z,21.32
2019-04-22T10:34:23.868Z,21.28
2019-04-22T10:36:52.768Z,22.11
2019-04-22T10:39:18.366Z,21.43
2019-04-22T10:41:50.631Z,21.43
2019-04-22T10:44:23.645Z,21.34
2019-04-22T10:46:56.075Z,21.28
2019-04-22T10:49:28.610Z,23.12
2019-04-22T10:52:00.760Z,22.27
2019-04-22T10:54:33.637Z,22.27
2019-04-22T10:57:06.673Z,21.09
2019-04-22T10:59:38.567Z,21.25
2019-04-22T11:02:11.691Z,21.25
2019-04-22T11:04:48.151Z,21.13
2019-04-22T11:07:25.250Z,21.35
2019-04-22T11:10:01.157Z,21.27
2019-04-22T11:12:30.805Z,21.16
2019-04-22T11:15:00.903Z,21.21
2019-04-22T11:17:33.529Z,20.90
2019-04-22T11:20:07.939Z,21.35
2019-04-22T11:22:40.750Z,21.77
2019-04-22T11:25:13.837Z,21.60
2019-04-22T11:27:46.902Z,21.60
2019-04-22T11:30:23.709Z,22.47
2019-04-22T11:32:54.224Z,22.64
2019-04-22T11:35:27.808Z,21.47
2019-04-22T11:38:00.991Z,21.62
2019-04-22T11:40:38.437Z,22.36
2019-04-22T11:43:07.982Z,21.92
2019-04-22T11:45:41.575Z,22.23
2019-04-22T11:48:13.382Z,22.29
2019-04-22T11:50:46.161Z,22.15
2019-04-22T11:53:18.661Z,22.15
2019-04-22T11:55:50.790Z,22.25
2019-04-22T11:58:24.443Z,22.25
2019-04-22T12:00:57.062Z,21.73
2019-04-22T12:03:29.069Z,22.56
2019-04-22T12:06:02.061Z,22.56
2019-04-22T12:08:34.111Z,22.20
2019-04-22T12:11:06.426Z,22.52
2019-04-22T12:13:42.477Z,22.73
2019-04-22T12:16:14.787Z,22.74
2019-04-22T12:18:47.261Z,23.43
2019-04-22T12:21:19.370Z,23.43
2019-04-22T12:23:52.718Z,23.93
2019-04-22T12:26:25.478Z,23.93
2019-04-22T12:28:59.318Z,23.61
2019-04-22T12:31:31.582Z,23.10
2019-04-22T12:34:03.860Z,22.49
2019-04-22T12:36:36.242Z,22.49
2019-04-22T12:39:11.572Z,23.39
2019-04-22T12:41:44.221Z,23.39
2019-04-22T12:44:16.312Z,23.34
2019-04-22T12:46:48.222Z,23.85
2019-04-22T12:49:20.338Z,23.85
2019-04-22T12:51:52.219Z,23.53
2019-04-22T12:54:24.626Z,23.35
2019-04-22T12:56:57.677Z,23.73
2019-04-22T12:59:29.958Z,23.82
2019-04-22T13:02:03.014Z,23.98
2019-04-22T13:04:36.246Z,24.66
2019-04-22T13:07:08.037Z,24.66
2019-04-22T13:09:41.117Z,24.31
2019-04-22T13:12:14.926Z,24.58
2019-04-22T13:14:48.690Z,24.64
2019-04-22T13:17:20.958Z,24.82
2019-04-22T13:19:54.016Z,24.55
2019-04-22T13:22:27.042Z,25.13
2019-04-22T13:24:59.691Z,24.88
2019-04-22T13:27:33.017Z,24.88
2019-04-22T13:30:06.277Z,25.19
2019-04-22T13:32:38.840Z,25.48
2019-04-22T13:35:12.865Z,25.29
2019-04-22T13:37:44.629Z,25.41
2019-04-22T13:40:19.034Z,25.56
2019-04-22T13:42:51.209Z,25.87
2019-04-22T13:45:23.435Z,25.84
2019-04-22T13:48:14.678Z,26.01
2019-04-22T13:54:13.749Z,26.30
2019-04-22T13:56:10.583Z,26.29
2019-04-22T13:58:26.762Z,26.60
2019-04-22T14:00:46.891Z,26.55
2019-04-22T14:03:39.320Z,26.73
2019-04-22T14:06:13.040Z,26.79
2019-04-22T14:08:45.447Z,26.93
2019-04-22T14:11:31.314Z,26.93
2019-04-22T14:13:52.072Z,26.97
2019-04-22T14:16:24.830Z,26.97
2019-04-22T14:19:18.417Z,27.62
2019-04-22T14:21:51.581Z,27.62
2019-04-22T14:24:23.739Z,27.72
2019-04-22T14:27:13.890Z,27.54
2019-04-22T14:29:31.528Z,27.56
2019-04-22T14:32:11.453Z,27.69
2019-04-22T14:34:37.998Z,27.71
2019-04-22T14:37:11.876Z,27.99
2019-04-22T14:39:44.093Z,28.09
2019-04-22T14:42:34.388Z,28.39
2019-04-22T14:45:24.342Z,28.35
2019-04-22T14:47:49.580Z,28.46
2019-04-22T14:50:18.452Z,28.44
2019-04-22T14:52:50.743Z,28.49
2019-04-22T14:55:12.983Z,28.45
2019-04-22T14:57:40.382Z,28.82
2019-04-22T15:00:16.243Z,28.67
2019-04-22T15:02:48.155Z,28.97
2019-04-22T15:05:22.027Z,28.97
2019-04-22T15:07:55.034Z,29.69
2019-04-22T15:10:28.196Z,29.51
2019-04-22T15:13:00.780Z,30.53
2019-04-22T15:15:51.530Z,30.80
2019-04-22T15:18:35.766Z,30.80
2019-04-22T15:21:11.159Z,30.70
2019-04-22T15:23:42.874Z,30.30
2019-04-22T15:26:14.708Z,30.30
2019-04-22T15:28:47.242Z,29.95
2019-04-22T15:31:19.445Z,29.95
2019-04-22T15:33:52.309Z,30.27
2019-04-22T15:36:24.210Z,30.66
2019-04-22T15:38:57.546Z,31.44
2019-04-22T15:41:30.539Z,32.63
2019-04-22T15:44:03.610Z,32.63
2019-04-22T15:46:37.039Z,33.10
2019-04-22T15:49:09.900Z,33.29
2019-04-22T15:51:42.891Z,34.05
2019-04-22T15:54:15.911Z,33.54
2019-04-22T15:56:48.743Z,33.90
2019-04-22T15:59:38.858Z,34.05
2019-04-22T16:01:58.179Z,34.34
2019-04-22T16:04:28.528Z,33.94
2019-04-22T16:07:01.207Z,33.94
2019-04-22T16:09:33.315Z,34.20
2019-04-22T16:12:16.314Z,35.18
2019-04-22T16:14:43.486Z,35.23
2019-04-22T16:17:12.750Z,35.23
2019-04-22T16:19:45.149Z,35.77
2019-04-22T16:22:54.728Z,35.66
2019-04-22T16:25:47.211Z,35.66
2019-04-22T16:28:19.677Z,35.80
2019-04-22T16:30:53.353Z,36.38
2019-04-22T16:33:27.785Z,37.09
2019-04-22T16:36:00.518Z,37.09
2019-04-22T16:38:33.012Z,37.65
2019-04-22T16:41:06.361Z,37.65
2019-04-22T16:43:38.679Z,38.20
2019-04-22T16:46:11.602Z,38.21
2019-04-22T16:48:43.712Z,38.33
2019-04-22T16:51:16.166Z,39.18
2019-04-22T16:53:49.595Z,39.96
2019-04-22T16:56:22.581Z,39.96
2019-04-22T16:58:54.812Z,40.38
2019-04-22T17:02:01.095Z,38.62
2019-04-22T17:04:46.751Z,39.38
2019-04-22T17:07:22.389Z,39.38
2019-04-22T17:09:55.508Z,40.37
2019-04-22T17:12:38.673Z,40.14
2019-04-22T17:15:04.544Z,40.14
2019-04-22T17:17:36.221Z,39.90
2019-04-22T17:20:11.330Z,38.76
2019-04-22T17:22:43.756Z,38.97
2019-04-22T17:25:18.163Z,40.17
2019-04-22T17:27:51.813Z,40.17
2019-04-22T17:30:24.378Z,39.91
2019-04-22T17:32:56.723Z,39.47
2019-04-22T17:35:28.626Z,39.47
2019-04-22T17:38:08.748Z,39.46
2019-04-22T17:40:51.228Z,39.17
2019-04-22T17:43:44.091Z,39.94
2019-04-22T17:46:04.452Z,40.02
2019-04-22T17:48:57.467Z,40.03
2019-04-22T17:51:31.465Z,39.70
2019-04-22T17:54:06.764Z,39.70
2019-04-22T17:56:45.217Z,39.92
2019-04-22T17:59:18.649Z,40.72
2019-04-22T18:01:44.020Z,40.43
2019-04-22T18:04:04.831Z,40.48
2019-04-22T18:07:04.144Z,40.26
2019-04-22T18:09:57.985Z,39.74
2019-04-22T18:12:16.313Z,39.74
2019-04-22T18:14:49.719Z,38.96
2019-04-22T18:17:19.486Z,39.07
2019-04-22T18:19:49.207Z,39.04
2019-04-22T18:22:12.332Z,37.93
2019-04-22T18:24:51.889Z,38.85
2019-04-22T18:27:38.920Z,38.81
2019-04-22T18:29:55.858Z,39.40
2019-04-22T18:32:30.767Z,39.13
2019-04-22T18:35:09.826Z,39.82
2019-04-22T18:37:43.899Z,39.82
2019-04-22T18:40:18.162Z,39.64
2019-04-22T18:42:56.717Z,39.20
2019-04-22T18:45:39.864Z,39.03
2019-04-22T18:47:55.057Z,39.48
2019-04-22T18:50:45.392Z,39.48
2019-04-22T18:53:35.166Z,40.63
2019-04-22T18:56:34.190Z,40.63
2019-04-22T18:58:54.828Z,40.79
2019-04-22T19:24:56.035Z,37.27
2019-04-22T19:27:32.076Z,37.27
2019-04-22T19:30:14.028Z,37.78
2019-04-22T19:32:38.392Z,38.22
2019-04-22T19:35:11.723Z,38.39
2019-04-22T19:37:41.142Z,38.39
2019-04-22T19:40:24.166Z,37.95
2019-04-22T19:43:03.953Z,37.95
2019-04-22T19:45:26.555Z,39.00
2019-04-22T19:48:16.657Z,39.74
2019-04-22T19:50:45.551Z,39.71
2019-04-22T19:53:19.510Z,39.71
2019-04-22T19:55:48.196Z,39.20
2019-04-22T19:58:18.767Z,41.07
2019-04-22T20:01:20.379Z,42.70
2019-04-22T20:04:22.983Z,42.70
2019-04-22T20:06:49.122Z,42.99
2019-04-22T20:09:30.087Z,45.01
2019-04-22T20:12:00.642Z,45.18
2019-04-22T20:14:35.283Z,44.97
2019-04-22T20:17:00.655Z,45.85
2019-04-22T20:22:12.756Z,45.99
2019-04-22T20:24:40.708Z,46.05
2019-04-22T20:27:22.515Z,45.66
2019-04-22T20:29:58.082Z,45.66
2019-04-22T20:32:29.238Z,45.82
2019-04-22T20:35:03.001Z,46.72
2019-04-22T20:37:38.434Z,46.72
2019-04-22T20:40:10.734Z,46.99
2019-04-22T20:45:29.121Z,47.50
2019-04-22T20:47:45.468Z,47.60
2019-04-22T20:50:29.122Z,47.60
2019-04-22T20:53:06.946Z,47.31
2019-04-22T20:55:32.261Z,46.73
2019-04-22T20:58:10.062Z,46.43
2019-04-22T21:00:36.792Z,46.88
2019-04-22T21:03:06.267Z,46.71
2019-04-22T21:05:40.291Z,46.71
2019-04-22T21:08:24.450Z,46.08
2019-04-22T21:10:46.738Z,46.60
2019-04-22T21:13:22.473Z,46.40
2019-04-22T21:16:04.242Z,46.82
2019-04-22T21:18:30.543Z,46.82
2019-04-22T21:21:13.573Z,46.84
2019-04-22T21:23:34.544Z,46.84
2019-04-22T21:26:13.818Z,47.74
2019-04-22T21:28:47.686Z,47.91
2019-04-22T21:31:32.400Z,47.91
2019-04-22T21:34:02.260Z,48.29
2019-04-22T21:39:00.858Z,48.75
2019-04-22T21:41:37.416Z,48.75
2019-04-22T21:44:12.828Z,47.84
2019-04-22T21:46:51.326Z,47.84
2019-04-22T21:49:23.159Z,48.49
2019-04-22T21:51:53.580Z,49.02
2019-04-22T21:54:26.693Z,48.35
2019-04-22T21:59:43.193Z,48.92
2019-04-22T22:02:25.653Z,48.84
2019-04-22T22:04:52.487Z,49.13
2019-04-22T22:07:15.661Z,49.70
2019-04-22T22:09:59.736Z,49.70
2019-04-22T22:12:36.094Z,48.99
2019-04-22T22:15:07.243Z,48.99
2019-04-22T22:17:40.401Z,49.73
2019-04-22T22:20:09.960Z,49.73
2019-04-22T22:22:52.478Z,50.58
2019-04-22T22:25:26.835Z,50.83
2019-04-22T22:27:53.382Z,50.97
2019-04-22T22:33:05.999Z,51.62
2019-04-22T22:35:39.339Z,52.31
2019-04-22T22:38:13.520Z,52.31
2019-04-22T22:40:28.134Z,52.55
2019-04-22T22:42:59.410Z,51.24
2019-04-22T22:45:39.719Z,50.77
2019-04-22T22:48:32.141Z,49.93
2019-04-22T22:50:58.736Z,50.62
2019-04-22T22:53:40.123Z,50.62
2019-04-22T22:56:04.557Z,51.12
2019-04-22T22:58:41.415Z,50.63
2019-04-22T23:01:09.926Z,50.50
2019-04-22T23:04:07.044Z,49.90
2019-04-22T23:06:29.374Z,50.26
2019-04-22T23:08:56.822Z,50.54
2019-04-22T23:11:45.493Z,50.58
2019-04-22T23:14:02.422Z,50.58
2019-04-22T23:16:27.920Z,50.75
2019-04-22T23:19:06.998Z,50.57
2019-04-22T23:21:45.758Z,50.46
2019-04-22T23:24:44.860Z,49.78
2019-04-22T23:27:22.212Z,49.78
2019-04-22T23:30:01.994Z,49.70
2019-04-22T23:32:34.672Z,49.82
2019-04-22T23:35:33.768Z,49.82
2019-04-22T23:38:08.331Z,50.24
2019-04-22T23:40:39.051Z,50.89
2019-04-22T23:43:22.221Z,50.69
2019-04-22T23:45:50.467Z,50.07
2019-04-22T23:48:20.629Z,49.83
2019-04-22T23:50:55.869Z,49.83
2019-04-22T23:54:00.864Z,49.91
2019-04-22T23:56:04.747Z,50.26
2019-04-22T23:59:01.177Z,49.82
